Weather at Tan Son Nhat International Airport

Public forecast

Using degrees Celsius for public forecast. Weather courtesy of forecast.io.

Current aviation weather report (METAR) for Tan Son Nhat International Airport

2022/12/03 15:00 (retrieved 15 minutes ago)

VVTS 031500Z 10010KT 9999 -RA SCT017 BKN050 24/23 Q1011 NOSIG

Aviation forecast (TAF) for Tan Son Nhat International Airport

2022/12/03 12:39 (retrieved 3 hours ago)

TAF VVTS 031100Z 0312/0418 VRB03KT 9999 SCT015 SCT040 TEMPO 0312/0316 4000 TSRA SCT015 FEW017CB BKN040 BECMG 0321/0322 5000 BR BECMG 0401/0402 10010KT 9999 NSW TEMPO 0408/0412 10015G26KT 3000 TSRA SCT013 SCT015CB